Accueil
METAR-TAF:

METAR-TAF

Aéroports :

Copenhague, Danemark

Aéroport de Copenhague

latitude: 55-37N, longitude: 012-39E, altitude: 5 m

Observation

Le bulletin a été fait il y a 36 minutes, à 06:19 UTC
Vent 14 kt de ouest/nord-ouest
Température 13°C
Humidité 62%
Pression 1011 hPa
Visibilité 10 km ou plus
Quelques nuages à une hauteur de 3200 ft

METAR: EKCH 270619Z 30014KT 9999 FEW032 13/06 Q1011 NOSIG

Heure: 08:55 (06:55 UTC)

Prévision

Le bulletin a été fait il y a 2 heures et 2 minutes, à 04:53 UTC
Prévision valable du 27 à 06 UTC au 28 à 06 UTC
Vent 8 kt de ouest
Visibilité 10 km ou plus
Nuages épars à une hauteur de 3000 ft
Evoluant progressivement
du 27 à 14 UTC au 27 à 17 UTC
Vent 5 kt de nord-est

TAF: EKCH 270453Z 2706/2806 27008KT 9999 SCT030 BECMG 2714/2717 05005KT

Observations et prévisions météorologiques de plus de 4000 aéroports (messages METAR et TAF).

Les stations disponibles sont représentées par des disques jaunes et rouges sur la carte.

Passer la souris dessus pour voir le nom de la station.

Cliquer dessus pour voir les observations et prévisions météorologiques.

Pour changer de carte: cliquez sur les boutons verts avec une croix noire pour zoomer, sur le bouton vert avec un tiret pour effectuer un zoom arrière, ou sur les flèches vertes pour les cartes adjacentes.


METAR-TAF: